sensor_id;sensor_type;location;lat;lon;timestamp;pressure;altitude;pressure_sealevel;temperature;humidity
8653;BME280;4364;52.426;9.424;2023-12-20T00:00:55;100666.88;;;6.02;100.00
8653;BME280;4364;52.426;9.424;2023-12-20T00:03:22;100669.50;;;5.97;100.00
8653;BME280;4364;52.426;9.424;2023-12-20T00:05:50;100674.22;;;5.90;100.00
8653;BME280;4364;52.426;9.424;2023-12-20T00:08:17;100682.22;;;5.85;100.00
8653;BME280;4364;52.426;9.424;2023-12-20T00:10:44;100691.13;;;5.85;100.00
8653;BME280;4364;52.426;9.424;2023-12-20T00:13:10;100680.59;;;5.84;100.00
8653;BME280;4364;52.426;9.424;2023-12-20T00:15:37;100681.94;;;5.98;100.00
8653;BME280;4364;52.426;9.424;2023-12-20T00:18:04;100680.75;;;5.94;100.00
8653;BME280;4364;52.426;9.424;2023-12-20T00:20:31;100679.63;;;5.90;100.00
8653;BME280;4364;52.426;9.424;2023-12-20T00:22:58;100684.34;;;5.83;100.00
8653;BME280;4364;52.426;9.424;2023-12-20T00:25:24;100688.69;;;5.84;100.00
8653;BME280;4364;52.426;9.424;2023-12-20T00:27:51;100680.66;;;5.72;100.00
8653;BME280;4364;52.426;9.424;2023-12-20T00:30:18;100687.34;;;5.52;100.00
8653;BME280;4364;52.426;9.424;2023-12-20T00:32:45;100686.88;;;5.55;100.00
8653;BME280;4364;52.426;9.424;2023-12-20T00:35:18;100677.63;;;5.51;100.00
8653;BME280;4364;52.426;9.424;2023-12-20T00:37:45;100684.47;;;5.42;100.00
8653;BME280;4364;52.426;9.424;2023-12-20T00:40:11;100681.47;;;5.55;100.00
8653;BME280;4364;52.426;9.424;2023-12-20T00:42:38;100688.75;;;5.55;100.00
8653;BME280;4364;52.426;9.424;2023-12-20T00:45:05;100683.59;;;5.53;100.00
8653;BME280;4364;52.426;9.424;2023-12-20T00:47:32;100683.84;;;5.52;100.00
8653;BME280;4364;52.426;9.424;2023-12-20T00:49:59;100678.53;;;5.57;100.00
8653;BME280;4364;52.426;9.424;2023-12-20T00:52:25;100684.97;;;5.56;100.00
8653;BME280;4364;52.426;9.424;2023-12-20T00:54:52;100682.88;;;5.58;100.00
8653;BME280;4364;52.426;9.424;2023-12-20T00:57:18;100677.13;;;5.54;100.00
8653;BME280;4364;52.426;9.424;2023-12-20T00:59:45;100682.72;;;5.65;100.00
8653;BME280;4364;52.426;9.424;2023-12-20T01:02:11;100684.25;;;5.61;100.00
8653;BME280;4364;52.426;9.424;2023-12-20T01:04:38;100680.59;;;5.67;100.00
8653;BME280;4364;52.426;9.424;2023-12-20T01:07:04;100682.91;;;5.46;100.00
8653;BME280;4364;52.426;9.424;2023-12-20T01:09:31;100680.56;;;5.50;100.00
8653;BME280;4364;52.426;9.424;2023-12-20T01:11:58;100666.56;;;5.53;100.00
8653;BME280;4364;52.426;9.424;2023-12-20T01:14:24;100673.63;;;5.54;100.00
8653;BME280;4364;52.426;9.424;2023-12-20T01:16:51;100681.94;;;5.52;100.00
8653;BME280;4364;52.426;9.424;2023-12-20T01:19:17;100684.25;;;5.44;100.00
8653;BME280;4364;52.426;9.424;2023-12-20T01:21:44;100683.91;;;5.40;100.00
8653;BME280;4364;52.426;9.424;2023-12-20T01:24:10;100685.63;;;5.46;100.00
8653;BME280;4364;52.426;9.424;2023-12-20T01:26:37;100694.94;;;5.38;100.00
8653;BME280;4364;52.426;9.424;2023-12-20T01:29:04;100691.00;;;5.46;100.00
8653;BME280;4364;52.426;9.424;2023-12-20T01:31:30;100694.78;;;5.45;100.00
8653;BME280;4364;52.426;9.424;2023-12-20T01:33:57;100688.72;;;5.38;100.00
8653;BME280;4364;52.426;9.424;2023-12-20T01:36:23;100698.13;;;5.35;100.00
8653;BME280;4364;52.426;9.424;2023-12-20T01:38:50;100696.41;;;5.46;100.00
8653;BME280;4364;52.426;9.424;2023-12-20T01:41:17;100697.47;;;5.45;100.00
8653;BME280;4364;52.426;9.424;2023-12-20T01:43:43;100692.97;;;5.51;100.00
8653;BME280;4364;52.426;9.424;2023-12-20T01:46:17;100689.31;;;5.40;100.00
8653;BME280;4364;52.426;9.424;2023-12-20T01:48:45;100684.97;;;5.39;100.00
8653;BME280;4364;52.426;9.424;2023-12-20T01:51:11;100690.84;;;5.36;100.00
8653;BME280;4364;52.426;9.424;2023-12-20T01:53:39;100694.63;;;5.52;100.00
8653;BME280;4364;52.426;9.424;2023-12-20T01:56:06;100693.44;;;5.31;100.00
8653;BME280;4364;52.426;9.424;2023-12-20T01:58:33;100695.72;;;5.22;100.00
8653;BME280;4364;52.426;9.424;2023-12-20T02:01:00;100694.75;;;5.28;100.00
8653;BME280;4364;52.426;9.424;2023-12-20T02:03:27;100699.81;;;5.25;100.00
8653;BME280;4364;52.426;9.424;2023-12-20T02:05:54;100694.91;;;5.22;100.00
8653;BME280;4364;52.426;9.424;2023-12-20T02:08:21;100684.34;;;5.20;100.00
8653;BME280;4364;52.426;9.424;2023-12-20T02:10:47;100687.63;;;5.22;100.00
8653;BME280;4364;52.426;9.424;2023-12-20T02:13:14;100677.59;;;5.06;100.00
8653;BME280;4364;52.426;9.424;2023-12-20T02:15:40;100660.06;;;5.03;100.00
8653;BME280;4364;52.426;9.424;2023-12-20T02:18:10;100658.97;;;5.04;100.00
8653;BME280;4364;52.426;9.424;2023-12-20T02:20:36;100658.69;;;4.89;100.00
8653;BME280;4364;52.426;9.424;2023-12-20T02:23:03;100672.47;;;5.04;100.00
8653;BME280;4364;52.426;9.424;2023-12-20T02:25:29;100673.69;;;4.96;100.00
8653;BME280;4364;52.426;9.424;2023-12-20T02:27:56;100660.19;;;4.96;100.00
8653;BME280;4364;52.426;9.424;2023-12-20T02:30:23;100654.22;;;4.94;100.00
8653;BME280;4364;52.426;9.424;2023-12-20T02:32:50;100653.78;;;4.86;100.00
8653;BME280;4364;52.426;9.424;2023-12-20T02:35:16;100667.25;;;4.86;100.00
8653;BME280;4364;52.426;9.424;2023-12-20T02:37:43;100657.94;;;4.76;100.00
8653;BME280;4364;52.426;9.424;2023-12-20T02:40:10;100665.03;;;4.82;100.00
8653;BME280;4364;52.426;9.424;2023-12-20T02:42:37;100666.22;;;4.87;100.00
8653;BME280;4364;52.426;9.424;2023-12-20T02:45:04;100664.25;;;4.70;100.00
8653;BME280;4364;52.426;9.424;2023-12-20T02:47:30;100666.38;;;4.68;100.00
8653;BME280;4364;52.426;9.424;2023-12-20T02:49:57;100661.38;;;4.60;100.00
8653;BME280;4364;52.426;9.424;2023-12-20T02:52:24;100658.66;;;4.60;100.00
8653;BME280;4364;52.426;9.424;2023-12-20T02:54:51;100654.34;;;4.59;100.00
8653;BME280;4364;52.426;9.424;2023-12-20T02:57:17;100653.09;;;4.50;100.00
8653;BME280;4364;52.426;9.424;2023-12-20T02:59:44;100647.22;;;4.53;100.00
8653;BME280;4364;52.426;9.424;2023-12-20T03:02:10;100633.16;;;4.51;100.00
8653;BME280;4364;52.426;9.424;2023-12-20T03:04:37;100636.56;;;4.58;100.00
8653;BME280;4364;52.426;9.424;2023-12-20T03:07:03;100648.75;;;4.49;100.00
8653;BME280;4364;52.426;9.424;2023-12-20T03:09:30;100634.69;;;4.47;100.00
8653;BME280;4364;52.426;9.424;2023-12-20T03:12:17;100637.63;;;4.45;100.00
8653;BME280;4364;52.426;9.424;2023-12-20T03:14:44;100635.63;;;4.52;100.00
8653;BME280;4364;52.426;9.424;2023-12-20T03:17:10;100639.84;;;4.48;100.00
8653;BME280;4364;52.426;9.424;2023-12-20T03:19:37;100625.69;;;4.53;100.00
8653;BME280;4364;52.426;9.424;2023-12-20T03:22:03;100626.38;;;4.48;100.00
8653;BME280;4364;52.426;9.424;2023-12-20T03:24:30;100616.44;;;4.37;100.00
8653;BME280;4364;52.426;9.424;2023-12-20T03:26:57;100622.97;;;4.41;100.00
8653;BME280;4364;52.426;9.424;2023-12-20T03:29:23;100622.75;;;4.42;100.00
8653;BME280;4364;52.426;9.424;2023-12-20T03:31:50;100615.28;;;4.44;100.00
8653;BME280;4364;52.426;9.424;2023-12-20T03:34:16;100606.25;;;4.39;100.00
8653;BME280;4364;52.426;9.424;2023-12-20T03:36:44;100613.09;;;4.30;100.00
8653;BME280;4364;52.426;9.424;2023-12-20T03:39:10;100611.66;;;4.39;100.00
8653;BME280;4364;52.426;9.424;2023-12-20T03:41:37;100609.19;;;4.37;100.00
8653;BME280;4364;52.426;9.424;2023-12-20T03:44:03;100607.56;;;4.36;100.00
8653;BME280;4364;52.426;9.424;2023-12-20T03:46:30;100612.47;;;4.39;100.00
8653;BME280;4364;52.426;9.424;2023-12-20T03:48:57;100600.41;;;4.42;100.00
8653;BME280;4364;52.426;9.424;2023-12-20T03:51:23;100595.03;;;4.42;100.00
8653;BME280;4364;52.426;9.424;2023-12-20T03:53:50;100603.09;;;4.42;100.00
8653;BME280;4364;52.426;9.424;2023-12-20T03:56:16;100596.66;;;4.43;100.00
8653;BME280;4364;52.426;9.424;2023-12-20T03:58:43;100593.22;;;4.48;100.00
8653;BME280;4364;52.426;9.424;2023-12-20T04:01:10;100581.66;;;4.47;100.00
8653;BME280;4364;52.426;9.424;2023-12-20T04:03:40;100593.22;;;4.48;100.00
8653;BME280;4364;52.426;9.424;2023-12-20T04:06:07;100592.91;;;4.44;100.00
8653;BME280;4364;52.426;9.424;2023-12-20T04:08:33;100592.91;;;4.44;100.00
8653;BME280;4364;52.426;9.424;2023-12-20T04:11:00;100589.69;;;4.59;100.00
8653;BME280;4364;52.426;9.424;2023-12-20T04:13:26;100597.78;;;4.59;100.00
8653;BME280;4364;52.426;9.424;2023-12-20T04:15:53;100597.53;;;4.60;100.00
8653;BME280;4364;52.426;9.424;2023-12-20T04:18:19;100592.25;;;4.66;100.00
8653;BME280;4364;52.426;9.424;2023-12-20T04:20:46;100597.53;;;4.60;100.00
8653;BME280;4364;52.426;9.424;2023-12-20T04:23:13;100592.25;;;4.66;100.00
8653;BME280;4364;52.426;9.424;2023-12-20T04:25:39;100585.56;;;4.68;100.00
8653;BME280;4364;52.426;9.424;2023-12-20T04:28:06;100577.81;;;4.72;100.00
8653;BME280;4364;52.426;9.424;2023-12-20T04:30:33;100579.25;;;4.62;100.00
8653;BME280;4364;52.426;9.424;2023-12-20T04:32:59;100581.13;;;4.62;100.00
8653;BME280;4364;52.426;9.424;2023-12-20T04:35:26;100578.06;;;4.70;100.00
8653;BME280;4364;52.426;9.424;2023-12-20T04:37:52;100575.84;;;4.67;100.00
8653;BME280;4364;52.426;9.424;2023-12-20T04:40:19;100569.75;;;4.72;100.00
8653;BME280;4364;52.426;9.424;2023-12-20T04:42:46;100567.53;;;4.69;100.00
8653;BME280;4364;52.426;9.424;2023-12-20T04:45:13;100564.22;;;4.78;100.00
8653;BME280;4364;52.426;9.424;2023-12-20T04:47:42;100567.63;;;4.74;100.00
8653;BME280;4364;52.426;9.424;2023-12-20T04:50:09;100563.78;;;4.70;100.00
8653;BME280;4364;52.426;9.424;2023-12-20T04:52:36;100573.53;;;4.88;100.00
8653;BME280;4364;52.426;9.424;2023-12-20T04:55:03;100572.84;;;4.80;100.00
8653;BME280;4364;52.426;9.424;2023-12-20T04:57:30;100559.09;;;4.94;100.00
8653;BME280;4364;52.426;9.424;2023-12-20T04:59:56;100562.25;;;4.91;100.00
8653;BME280;4364;52.426;9.424;2023-12-20T05:02:23;100559.66;;;4.96;100.00
8653;BME280;4364;52.426;9.424;2023-12-20T05:04:49;100564.00;;;4.97;100.00
8653;BME280;4364;52.426;9.424;2023-12-20T05:07:19;100557.31;;;4.99;100.00
8653;BME280;4364;52.426;9.424;2023-12-20T05:09:46;100565.72;;;5.03;100.00
8653;BME280;4364;52.426;9.424;2023-12-20T05:12:12;100565.13;;;5.01;100.00
8653;BME280;4364;52.426;9.424;2023-12-20T05:14:39;100556.81;;;5.03;100.00
8653;BME280;4364;52.426;9.424;2023-12-20T05:17:05;100558.84;;;4.95;100.00
8653;BME280;4364;52.426;9.424;2023-12-20T05:19:32;100569.06;;;4.93;100.00
8653;BME280;4364;52.426;9.424;2023-12-20T05:22:02;100566.28;;;5.05;100.00
8653;BME280;4364;52.426;9.424;2023-12-20T05:24:29;100565.41;;;4.99;100.00
8653;BME280;4364;52.426;9.424;2023-12-20T05:26:55;100565.41;;;4.99;100.00
8653;BME280;4364;52.426;9.424;2023-12-20T05:29:22;100558.94;;;5.00;100.00
8653;BME280;4364;52.426;9.424;2023-12-20T05:31:48;100553.53;;;5.00;100.00
8653;BME280;4364;52.426;9.424;2023-12-20T05:34:15;100580.50;;;5.00;100.00
8653;BME280;4364;52.426;9.424;2023-12-20T05:36:41;100565.13;;;5.01;100.00
8653;BME280;4364;52.426;9.424;2023-12-20T05:39:08;100548.00;;;5.07;100.00
8653;BME280;4364;52.426;9.424;2023-12-20T05:41:34;100552.50;;;5.01;100.00
8653;BME280;4364;52.426;9.424;2023-12-20T05:44:01;100557.56;;;4.98;100.00
8653;BME280;4364;52.426;9.424;2023-12-20T05:46:27;100564.66;;;5.04;100.00
8653;BME280;4364;52.426;9.424;2023-12-20T05:48:54;100562.56;;;5.06;100.00
8653;BME280;4364;52.426;9.424;2023-12-20T05:51:21;100556.66;;;5.09;100.00
8653;BME280;4364;52.426;9.424;2023-12-20T05:53:47;100563.44;;;5.12;100.00
8653;BME280;4364;52.426;9.424;2023-12-20T05:56:16;100553.16;;;5.09;100.00
8653;BME280;4364;52.426;9.424;2023-12-20T05:58:42;100558.28;;;5.10;100.00
8653;BME280;4364;52.426;9.424;2023-12-20T06:01:09;100541.06;;;5.11;100.00
8653;BME280;4364;52.426;9.424;2023-12-20T06:03:36;100553.47;;;5.12;100.00
8653;BME280;4364;52.426;9.424;2023-12-20T06:06:06;100560.44;;;5.08;100.00
8653;BME280;4364;52.426;9.424;2023-12-20T06:08:42;100558.13;;;5.00;100.00
8653;BME280;4364;52.426;9.424;2023-12-20T06:11:10;100560.25;;;4.98;100.00
8653;BME280;4364;52.426;9.424;2023-12-20T06:13:36;100570.13;;;5.09;100.00
8653;BME280;4364;52.426;9.424;2023-12-20T06:16:05;100566.31;;;5.22;100.00
8653;BME280;4364;52.426;9.424;2023-12-20T06:18:32;100564.72;;;5.09;100.00
8653;BME280;4364;52.426;9.424;2023-12-20T06:20:59;100561.22;;;5.09;100.00
8653;BME280;4364;52.426;9.424;2023-12-20T06:23:25;100562.63;;;5.11;100.00
8653;BME280;4364;52.426;9.424;2023-12-20T06:25:53;100563.78;;;5.15;100.00
8653;BME280;4364;52.426;9.424;2023-12-20T06:28:20;100564.25;;;5.12;100.00
8653;BME280;4364;52.426;9.424;2023-12-20T06:30:46;100555.69;;;5.15;100.00
8653;BME280;4364;52.426;9.424;2023-12-20T06:33:15;100549.66;;;5.08;100.00
8653;BME280;4364;52.426;9.424;2023-12-20T06:35:42;100544.34;;;5.13;100.00
8653;BME280;4364;52.426;9.424;2023-12-20T06:38:09;100542.94;;;5.11;100.00
8653;BME280;4364;52.426;9.424;2023-12-20T06:40:35;100541.16;;;4.99;100.00
8653;BME280;4364;52.426;9.424;2023-12-20T06:43:02;100550.53;;;4.97;100.00
8653;BME280;4364;52.426;9.424;2023-12-20T06:45:41;100552.72;;;5.00;100.00
8653;BME280;4364;52.426;9.424;2023-12-20T06:48:08;100553.06;;;5.04;100.00
8653;BME280;4364;52.426;9.424;2023-12-20T06:50:37;100548.88;;;4.96;100.00
8653;BME280;4364;52.426;9.424;2023-12-20T06:53:06;100556.25;;;5.00;100.00
8653;BME280;4364;52.426;9.424;2023-12-20T06:55:36;100546.09;;;5.08;100.00
8653;BME280;4364;52.426;9.424;2023-12-20T06:58:04;100544.41;;;5.01;100.00
8653;BME280;4364;52.426;9.424;2023-12-20T07:00:32;100536.00;;;4.98;100.00
8653;BME280;4364;52.426;9.424;2023-12-20T07:02:58;100528.25;;;5.01;100.00
8653;BME280;4364;52.426;9.424;2023-12-20T07:05:27;100519.63;;;4.88;100.00
8653;BME280;4364;52.426;9.424;2023-12-20T07:07:53;100512.38;;;4.88;100.00
8653;BME280;4364;52.426;9.424;2023-12-20T07:10:20;100526.09;;;4.87;100.00
8653;BME280;4364;52.426;9.424;2023-12-20T07:12:47;100520.22;;;4.90;100.00
8653;BME280;4364;52.426;9.424;2023-12-20T07:15:15;100528.31;;;4.90;100.00
8653;BME280;4364;52.426;9.424;2023-12-20T07:17:41;100523.00;;;4.95;100.00
8653;BME280;4364;52.426;9.424;2023-12-20T07:20:09;100516.78;;;4.94;100.00
8653;BME280;4364;52.426;9.424;2023-12-20T07:22:37;100524.13;;;4.99;100.00
8653;BME280;4364;52.426;9.424;2023-12-20T07:25:04;100525.38;;;4.91;100.00
8653;BME280;4364;52.426;9.424;2023-12-20T07:27:31;100538.25;;;4.89;100.00
8653;BME280;4364;52.426;9.424;2023-12-20T07:29:57;100529.59;;;4.87;100.00
8653;BME280;4364;52.426;9.424;2023-12-20T07:32:24;100526.28;;;4.97;100.00
8653;BME280;4364;52.426;9.424;2023-12-20T07:34:50;100540.22;;;4.94;100.00
8653;BME280;4364;52.426;9.424;2023-12-20T07:37:17;100532.63;;;4.91;100.00
8653;BME280;4364;52.426;9.424;2023-12-20T07:39:44;100528.88;;;4.92;100.00
8653;BME280;4364;52.426;9.424;2023-12-20T07:42:10;100525.94;;;4.93;100.00
8653;BME280;4364;52.426;9.424;2023-12-20T07:44:37;100514.75;;;4.85;100.00
8653;BME280;4364;52.426;9.424;2023-12-20T07:47:04;100513.91;;;4.84;100.00
8653;BME280;4364;52.426;9.424;2023-12-20T07:49:31;100514.06;;;4.77;100.00
8653;BME280;4364;52.426;9.424;2023-12-20T07:51:58;100496.22;;;4.88;100.00
8653;BME280;4364;52.426;9.424;2023-12-20T07:54:25;100513.19;;;4.89;100.00
8653;BME280;4364;52.426;9.424;2023-12-20T07:56:51;100512.31;;;4.83;100.00
8653;BME280;4364;52.426;9.424;2023-12-20T07:59:18;100532.06;;;4.89;100.00
8653;BME280;4364;52.426;9.424;2023-12-20T08:01:57;100522.91;;;4.90;100.00
8653;BME280;4364;52.426;9.424;2023-12-20T08:04:24;100523.50;;;4.92;100.00
8653;BME280;4364;52.426;9.424;2023-12-20T08:06:51;100503.66;;;4.98;100.00
8653;BME280;4364;52.426;9.424;2023-12-20T08:09:18;100507.31;;;4.92;100.00
8653;BME280;4364;52.426;9.424;2023-12-20T08:11:46;100511.16;;;4.96;100.00
8653;BME280;4364;52.426;9.424;2023-12-20T08:14:12;100505.50;;;4.97;100.00
8653;BME280;4364;52.426;9.424;2023-12-20T08:16:39;100496.22;;;5.05;100.00
8653;BME280;4364;52.426;9.424;2023-12-20T08:19:06;100493.94;;;4.97;100.00
8653;BME280;4364;52.426;9.424;2023-12-20T08:21:33;100502.09;;;5.02;100.00
8653;BME280;4364;52.426;9.424;2023-12-20T08:24:03;100496.47;;;5.04;100.00
8653;BME280;4364;52.426;9.424;2023-12-20T08:26:31;100502.56;;;4.99;100.00
8653;BME280;4364;52.426;9.424;2023-12-20T08:28:57;100492.13;;;5.03;100.00
8653;BME280;4364;52.426;9.424;2023-12-20T08:31:27;100497.94;;;5.11;100.00
8653;BME280;4364;52.426;9.424;2023-12-20T08:33:53;100490.66;;;5.12;100.00
8653;BME280;4364;52.426;9.424;2023-12-20T08:36:21;100492.03;;;5.14;100.00
8653;BME280;4364;52.426;9.424;2023-12-20T08:38:49;100482.34;;;5.13;100.00
8653;BME280;4364;52.426;9.424;2023-12-20T08:41:19;100485.03;;;5.13;100.00
8653;BME280;4364;52.426;9.424;2023-12-20T08:43:46;100475.06;;;5.14;100.00
8653;BME280;4364;52.426;9.424;2023-12-20T08:46:14;100483.72;;;5.16;100.00
8653;BME280;4364;52.426;9.424;2023-12-20T08:48:41;100475.88;;;5.14;100.00
8653;BME280;4364;52.426;9.424;2023-12-20T08:51:08;100463.47;;;5.13;100.00
8653;BME280;4364;52.426;9.424;2023-12-20T08:53:35;100461.41;;;5.20;100.00
8653;BME280;4364;52.426;9.424;2023-12-20T08:56:02;100464.66;;;5.23;100.00
8653;BME280;4364;52.426;9.424;2023-12-20T08:58:29;100459.53;;;5.21;100.00
8653;BME280;4364;52.426;9.424;2023-12-20T09:00:56;100472.75;;;5.23;100.00
8653;BME280;4364;52.426;9.424;2023-12-20T09:03:24;100466.25;;;5.18;100.00
8653;BME280;4364;52.426;9.424;2023-12-20T09:05:50;100466.56;;;5.22;100.00
8653;BME280;4364;52.426;9.424;2023-12-20T09:08:17;100460.59;;;5.20;100.00
8653;BME280;4364;52.426;9.424;2023-12-20T09:10:43;100464.66;;;5.23;100.00
8653;BME280;4364;52.426;9.424;2023-12-20T09:13:11;100460.91;;;5.24;100.00
8653;BME280;4364;52.426;9.424;2023-12-20T09:15:38;100448.75;;;5.21;100.00
8653;BME280;4364;52.426;9.424;2023-12-20T09:18:04;100446.88;;;5.22;100.00
8653;BME280;4364;52.426;9.424;2023-12-20T09:20:31;100438.38;;;5.30;100.00
8653;BME280;4364;52.426;9.424;2023-12-20T09:22:59;100448.56;;;5.28;100.00
8653;BME280;4364;52.426;9.424;2023-12-20T09:25:25;100450.22;;;5.29;100.00
8653;BME280;4364;52.426;9.424;2023-12-20T09:27:52;100437.59;;;5.34;100.00
8653;BME280;4364;52.426;9.424;2023-12-20T09:30:19;100426.31;;;5.37;100.00
8653;BME280;4364;52.426;9.424;2023-12-20T09:32:53;100437.13;;;5.37;100.00
8653;BME280;4364;52.426;9.424;2023-12-20T09:35:20;100421.78;;;5.38;100.00
8653;BME280;4364;52.426;9.424;2023-12-20T09:37:47;100430.72;;;5.44;100.00
8653;BME280;4364;52.426;9.424;2023-12-20T09:40:14;100423.19;;;5.46;100.00
8653;BME280;4364;52.426;9.424;2023-12-20T09:42:57;100427.84;;;5.50;100.00
8653;BME280;4364;52.426;9.424;2023-12-20T09:45:24;100416.75;;;5.47;100.00
8653;BME280;4364;52.426;9.424;2023-12-20T09:47:54;100416.56;;;5.53;100.00
8653;BME280;4364;52.426;9.424;2023-12-20T09:50:22;100418.19;;;5.54;100.00
8653;BME280;4364;52.426;9.424;2023-12-20T09:52:53;100411.78;;;5.61;100.00
8653;BME280;4364;52.426;9.424;2023-12-20T09:55:21;100404.56;;;5.66;100.00
8653;BME280;4364;52.426;9.424;2023-12-20T09:57:48;100401.13;;;5.71;100.00
8653;BME280;4364;52.426;9.424;2023-12-20T10:00:16;100412.41;;;5.68;100.00
8653;BME280;4364;52.426;9.424;2023-12-20T10:02:59;100408.97;;;5.72;100.00
8653;BME280;4364;52.426;9.424;2023-12-20T10:05:31;100405.97;;;5.69;100.00
8653;BME280;4364;52.426;9.424;2023-12-20T10:07:59;100420.75;;;5.66;100.00
8653;BME280;4364;52.426;9.424;2023-12-20T10:10:26;100396.56;;;5.71;100.00
8653;BME280;4364;52.426;9.424;2023-12-20T10:13:09;100403.38;;;5.79;100.00
8653;BME280;4364;52.426;9.424;2023-12-20T10:15:37;100396.63;;;5.77;100.00
8653;BME280;4364;52.426;9.424;2023-12-20T10:18:04;100396.19;;;5.85;100.00
8653;BME280;4364;52.426;9.424;2023-12-20T10:20:31;100417.06;;;5.72;100.00
8653;BME280;4364;52.426;9.424;2023-12-20T10:23:00;100407.22;;;5.83;100.00
8653;BME280;4364;52.426;9.424;2023-12-20T10:25:27;100401.28;;;5.86;100.00
8653;BME280;4364;52.426;9.424;2023-12-20T10:28:11;100400.13;;;5.77;100.00
8653;BME280;4364;52.426;9.424;2023-12-20T10:30:39;100405.03;;;5.80;100.00
8653;BME280;4364;52.426;9.424;2023-12-20T10:33:07;100400.13;;;5.77;100.00
8653;BME280;4364;52.426;9.424;2023-12-20T10:35:38;100389.66;;;5.81;100.00
8653;BME280;4364;52.426;9.424;2023-12-20T10:38:11;100391.03;;;5.83;100.00
8653;BME280;4364;52.426;9.424;2023-12-20T10:40:39;100402.31;;;5.80;100.00
8653;BME280;4364;52.426;9.424;2023-12-20T10:43:08;100403.50;;;5.89;100.00
8653;BME280;4364;52.426;9.424;2023-12-20T10:45:35;100402.69;;;5.89;100.00
8653;BME280;4364;52.426;9.424;2023-12-20T10:48:02;100396.94;;;6.02;100.00
8653;BME280;4364;52.426;9.424;2023-12-20T10:50:30;100402.28;;;5.97;100.00
8653;BME280;4364;52.426;9.424;2023-12-20T10:52:58;100397.28;;;5.89;100.00
8653;BME280;4364;52.426;9.424;2023-12-20T10:55:25;100392.84;;;6.00;100.00
8653;BME280;4364;52.426;9.424;2023-12-20T10:57:54;100385.28;;;5.97;100.00
8653;BME280;4364;52.426;9.424;2023-12-20T11:00:29;100391.69;;;5.96;100.00
8653;BME280;4364;52.426;9.424;2023-12-20T11:03:01;100388.13;;;5.90;100.00
8653;BME280;4364;52.426;9.424;2023-12-20T11:05:38;100380.75;;;5.80;100.00
8653;BME280;4364;52.426;9.424;2023-12-20T11:08:20;100376.97;;;5.81;100.00
8653;BME280;4364;52.426;9.424;2023-12-20T11:10:58;100374.97;;;5.71;100.00
8653;BME280;4364;52.426;9.424;2023-12-20T11:13:30;100373.94;;;5.78;100.00
8653;BME280;4364;52.426;9.424;2023-12-20T11:15:58;100364.44;;;5.70;100.00
8653;BME280;4364;52.426;9.424;2023-12-20T11:18:29;100373.34;;;5.70;100.00
8653;BME280;4364;52.426;9.424;2023-12-20T11:21:04;100369.00;;;5.69;100.00
8653;BME280;4364;52.426;9.424;2023-12-20T11:23:35;100396.56;;;5.71;100.00
8653;BME280;4364;52.426;9.424;2023-12-20T11:26:02;100418.97;;;5.72;100.00
8653;BME280;4364;52.426;9.424;2023-12-20T11:28:29;100441.44;;;5.38;100.00
8653;BME280;4364;52.426;9.424;2023-12-20T11:31:01;100451.69;;;5.03;100.00
8653;BME280;4364;52.426;9.424;2023-12-20T11:33:36;100442.66;;;4.75;100.00
8653;BME280;4364;52.426;9.424;2023-12-20T11:36:13;100430.53;;;4.43;100.00
8653;BME280;4364;52.426;9.424;2023-12-20T11:38:53;100427.09;;;4.31;100.00
8653;BME280;4364;52.426;9.424;2023-12-20T11:41:23;100424.41;;;4.31;100.00
8653;BME280;4364;52.426;9.424;2023-12-20T11:43:52;100410.78;;;4.38;100.00
8653;BME280;4364;52.426;9.424;2023-12-20T11:46:20;100425.53;;;4.35;100.00
8653;BME280;4364;52.426;9.424;2023-12-20T11:48:47;100417.00;;;4.38;100.00
8653;BME280;4364;52.426;9.424;2023-12-20T11:51:14;100409.16;;;4.37;100.00
8653;BME280;4364;52.426;9.424;2023-12-20T11:53:41;100404.34;;;4.39;100.00
8653;BME280;4364;52.426;9.424;2023-12-20T11:56:11;100401.16;;;4.42;100.00
8653;BME280;4364;52.426;9.424;2023-12-20T11:58:38;100397.56;;;4.36;100.00
8653;BME280;4364;52.426;9.424;2023-12-20T12:01:05;100393.16;;;4.47;100.00
8653;BME280;4364;52.426;9.424;2023-12-20T12:03:35;100391.03;;;4.49;100.00
8653;BME280;4364;52.426;9.424;2023-12-20T12:06:03;100385.84;;;4.59;100.00
8653;BME280;4364;52.426;9.424;2023-12-20T12:08:31;100389.03;;;4.56;100.00
8653;BME280;4364;52.426;9.424;2023-12-20T12:10:58;100399.41;;;4.64;100.00
8653;BME280;4364;52.426;9.424;2023-12-20T12:13:24;100397.44;;;4.77;100.00
8653;BME280;4364;52.426;9.424;2023-12-20T12:15:53;100395.84;;;4.81;100.00
8653;BME280;4364;52.426;9.424;2023-12-20T12:18:20;100385.44;;;4.85;100.00
8653;BME280;4364;52.426;9.424;2023-12-20T12:20:46;100404.03;;;4.69;100.00
8653;BME280;4364;52.426;9.424;2023-12-20T12:23:13;100398.81;;;4.79;100.00
8653;BME280;4364;52.426;9.424;2023-12-20T12:25:40;100394.81;;;4.82;100.00
8653;BME280;4364;52.426;9.424;2023-12-20T12:28:09;100390.75;;;4.79;100.00
8653;BME280;4364;52.426;9.424;2023-12-20T12:30:37;100381.59;;;4.80;100.00
8653;BME280;4364;52.426;9.424;2023-12-20T12:33:11;100394.00;;;4.81;100.00
8653;BME280;4364;52.426;9.424;2023-12-20T12:35:38;100389.66;;;4.80;100.00
8653;BME280;4364;52.426;9.424;2023-12-20T12:38:07;100379.63;;;4.76;100.00
8653;BME280;4364;52.426;9.424;2023-12-20T12:40:34;100390.75;;;4.79;100.00
8653;BME280;4364;52.426;9.424;2023-12-20T12:43:03;100378.56;;;4.77;100.00
8653;BME280;4364;52.426;9.424;2023-12-20T12:45:30;100388.63;;;4.81;100.00
8653;BME280;4364;52.426;9.424;2023-12-20T12:47:57;100386.50;;;4.67;100.00
8653;BME280;4364;52.426;9.424;2023-12-20T12:50:23;100380.03;;;4.68;100.00
8653;BME280;4364;52.426;9.424;2023-12-20T12:52:50;100377.00;;;4.64;100.00
8653;BME280;4364;52.426;9.424;2023-12-20T12:55:17;100376.91;;;4.76;100.00
8653;BME280;4364;52.426;9.424;2023-12-20T12:57:43;100375.63;;;4.78;100.00
8653;BME280;4364;52.426;9.424;2023-12-20T13:00:10;100375.16;;;4.81;100.00
8653;BME280;4364;52.426;9.424;2023-12-20T13:02:38;100377.00;;;4.81;100.00
8653;BME280;4364;52.426;9.424;2023-12-20T13:05:08;100377.66;;;4.88;100.00
8653;BME280;4364;52.426;9.424;2023-12-20T13:07:36;100373.66;;;4.91;100.00
8653;BME280;4364;52.426;9.424;2023-12-20T13:10:04;100379.44;;;4.82;100.00
8653;BME280;4364;52.426;9.424;2023-12-20T13:12:32;100382.81;;;4.90;100.00